Time;durP1;ratioP1;P1;durP2;ratioP2;P2;SDS_P1;SDS_P2;PMS_P1;PMS_P2;Temp;Humidity;BMP_temperature;BMP_pressure;BME280_temperature;BME280_humidity;BME280_pressure;Samples;Min_cycle;Max_cycle;Signal;HPM_P1;HPM_P2
2022/05/03 00:00:10;;;;;;;3.75;1.90;;;11.80;99.90;;;;;;5038557;28;20441;-52
2022/05/03 00:02:57;;;;;;;3.30;1.45;;;11.70;99.90;;;;;;5038677;28;20779;-50
2022/05/03 00:05:44;;;;;;;1.92;1.63;;;11.70;99.90;;;;;;5029320;28;20677;-54
2022/05/03 00:08:24;;;;;;;3.00;1.80;;;11.70;99.90;;;;;;5014140;28;20766;-54
2022/05/03 00:11:20;;;;;;;3.35;1.70;;;11.60;99.90;;;;;;5012715;28;20845;-54
2022/05/03 00:13:56;;;;;;;2.28;1.70;;;11.60;99.90;;;;;;5031166;28;20383;-55
2022/05/03 00:16:22;;;;;;;3.33;1.63;;;11.60;99.90;;;;;;5030533;28;20506;-52
2022/05/03 00:18:49;;;;;;;3.00;1.98;;;11.60;99.90;;;;;;5029729;28;20500;-56
2022/05/03 00:21:14;;;;;;;3.42;1.83;;;11.60;99.90;;;;;;5033761;28;20543;-55
2022/05/03 00:23:41;;;;;;;2.72;1.80;;;11.60;99.90;;;;;;5015856;28;20387;-56
2022/05/03 00:26:08;;;;;;;3.85;1.80;;;11.50;99.90;;;;;;5017643;28;20391;-53
2022/05/03 00:28:35;;;;;;;4.25;2.17;;;11.50;99.90;;;;;;5034773;28;20407;-54
2022/05/03 00:31:01;;;;;;;2.10;1.77;;;11.50;99.90;;;;;;5034153;28;20387;-50
2022/05/03 00:33:32;;;;;;;2.47;1.90;;;11.50;99.90;;;;;;5019274;28;20422;-55
2022/05/03 00:35:58;;;;;;;3.30;2.00;;;11.40;99.90;;;;;;5020231;28;20799;-53
2022/05/03 00:38:23;;;;;;;2.88;1.95;;;11.30;99.90;;;;;;5021936;28;20706;-54
2022/05/03 00:40:56;;;;;;;2.53;1.90;;;11.30;99.90;;;;;;5021494;28;20403;-52
2022/05/03 00:43:39;;;;;;;2.85;2.05;;;11.30;99.90;;;;;;5016365;28;20866;-53
2022/05/03 00:46:15;;;;;;;2.72;1.85;;;11.20;99.90;;;;;;5034038;28;20855;-54
2022/05/03 00:49:19;;;;;;;4.53;2.30;;;11.20;99.90;;;;;;5017495;28;20391;-57
2022/05/03 00:52:13;;;;;;;3.13;2.20;;;11.10;99.90;;;;;;5015980;28;20383;-57
2022/05/03 00:54:45;;;;;;;4.50;2.10;;;11.10;99.90;;;;;;5016709;28;20394;-52
2022/05/03 00:57:33;;;;;;;3.97;2.10;;;11.10;99.90;;;;;;5034857;28;20387;-52
2022/05/03 01:00:13;;;;;;;3.85;2.05;;;11.10;99.90;;;;;;5036608;28;20436;-51
2022/05/03 01:03:18;;;;;;;2.67;2.00;;;11.10;99.90;;;;;;5019313;28;20383;-58
2022/05/03 01:06:12;;;;;;;3.80;2.30;;;11.10;99.90;;;;;;5012896;28;21202;-55
2022/05/03 01:09:03;;;;;;;2.55;1.92;;;11.10;99.90;;;;;;5034497;28;20821;-55
2022/05/03 01:11:46;;;;;;;2.60;1.90;;;11.00;99.90;;;;;;5018681;28;20391;-58
2022/05/03 01:14:17;;;;;;;3.67;2.30;;;10.90;99.90;;;;;;5018211;28;20862;-56
2022/05/03 01:17:03;;;;;;;3.25;2.00;;;10.80;99.90;;;;;;5034505;28;20387;-54
2022/05/03 01:19:51;;;;;;;4.90;1.88;;;10.80;99.90;;;;;;5018652;28;20679;-56
2022/05/03 01:22:37;;;;;;;2.45;2.17;;;10.90;99.90;;;;;;5035829;28;20449;-57
2022/05/03 01:25:24;;;;;;;2.50;2.10;;;10.80;99.90;;;;;;5036452;28;20382;-56
2022/05/03 01:27:50;;;;;;;4.05;2.70;;;10.80;99.90;;;;;;5035060;28;20415;-53
2022/05/03 01:30:16;;;;;;;3.63;2.80;;;10.80;99.90;;;;;;5033310;28;20547;-54
2022/05/03 01:32:44;;;;;;;3.10;2.30;;;10.80;99.90;;;;;;5033600;28;20383;-54
2022/05/03 01:35:13;;;;;;;4.28;2.50;;;10.80;99.90;;;;;;5017683;28;20413;-54
2022/05/03 01:38:05;;;;;;;2.65;2.45;;;10.70;99.90;;;;;;5017958;28;20422;-56
2022/05/03 01:41:02;;;;;;;5.20;2.75;;;10.70;99.90;;;;;;4990000;28;20403;-51
2022/05/03 01:43:46;;;;;;;4.63;2.60;;;10.70;99.90;;;;;;5033744;28;20398;-55
2022/05/03 01:46:14;;;;;;;3.28;2.85;;;10.70;99.90;;;;;;5018809;28;20387;-54
2022/05/03 01:51:46;;;;;;;4.25;2.60;;;10.60;99.90;;;;;;5036311;28;20465;-53
2022/05/03 01:54:20;;;;;;;3.22;2.85;;;10.50;99.90;;;;;;5034281;28;20391;-54
2022/05/03 01:57:04;;;;;;;2.92;2.63;;;10.50;99.90;;;;;;5033273;28;20418;-55
2022/05/03 01:59:54;;;;;;;3.13;2.80;;;10.40;99.90;;;;;;5015611;28;20409;-55
2022/05/03 02:02:34;;;;;;;3.75;3.08;;;10.40;99.90;;;;;;5032475;28;20687;-55
2022/05/03 02:05:07;;;;;;;4.00;3.10;;;10.30;99.90;;;;;;5032996;28;20422;-52
2022/05/03 02:07:48;;;;;;;3.97;2.97;;;10.40;99.90;;;;;;5016227;28;20406;-53
2022/05/03 02:10:18;;;;;;;3.50;3.10;;;10.40;99.90;;;;;;5033940;28;20390;-54
2022/05/03 02:12:52;;;;;;;4.07;3.28;;;10.40;99.90;;;;;;5033828;28;20403;-55
2022/05/03 02:15:36;;;;;;;4.65;3.42;;;10.30;99.90;;;;;;5034926;28;20383;-50
2022/05/03 02:18:05;;;;;;;3.97;3.30;;;10.30;99.90;;;;;;5017747;28;20486;-56
2022/05/03 02:21:09;;;;;;;3.78;3.33;;;10.30;99.90;;;;;;5015879;28;20468;-52
2022/05/03 02:24:18;;;;;;;4.05;3.00;;;10.30;99.90;;;;;;5034050;28;20391;-53
2022/05/03 02:26:53;;;;;;;4.57;3.27;;;10.30;99.90;;;;;;5032518;28;20504;-51
2022/05/03 02:29:26;;;;;;;4.10;3.20;;;10.20;99.90;;;;;;5017149;28;20387;-52
2022/05/03 02:32:04;;;;;;;5.63;3.50;;;10.20;99.90;;;;;;5016736;28;20598;-57
2022/05/03 02:34:49;;;;;;;6.83;3.47;;;10.20;99.90;;;;;;5016730;28;20390;-53
2022/05/03 02:37:23;;;;;;;4.78;3.70;;;10.20;99.90;;;;;;5035140;28;20597;-55
2022/05/03 02:39:59;;;;;;;4.13;3.72;;;10.20;99.90;;;;;;5017879;28;20721;-53
2022/05/03 02:42:25;;;;;;;4.25;3.75;;;10.20;99.90;;;;;;5034905;28;20424;-55
2022/05/03 02:44:56;;;;;;;4.93;3.70;;;10.20;99.90;;;;;;5017400;28;20598;-53
2022/05/03 02:47:42;;;;;;;4.28;3.88;;;10.20;99.90;;;;;;5015860;28;20403;-52
2022/05/03 02:50:21;;;;;;;5.28;4.00;;;10.20;99.90;;;;;;5030889;28;20391;-56
2022/05/03 02:53:05;;;;;;;5.13;3.47;;;10.20;99.90;;;;;;5014948;28;20492;-52
2022/05/03 02:55:40;;;;;;;5.50;4.00;;;10.20;99.90;;;;;;5032199;28;20391;-54
2022/05/03 02:58:14;;;;;;;4.97;4.05;;;10.10;99.90;;;;;;5029498;28;20407;-55
2022/05/03 03:04:12;;;;;;;5.43;4.20;;;10.00;99.90;;;;;;5030536;28;20643;-56
2022/05/03 03:06:42;;;;;;;6.68;4.30;;;9.90;99.90;;;;;;5030636;28;20807;-53
2022/05/03 03:09:08;;;;;;;5.32;4.13;;;9.90;99.90;;;;;;5031116;28;20802;-52
2022/05/03 03:11:55;;;;;;;5.67;4.47;;;9.90;99.90;;;;;;5013757;28;20465;-57
2022/05/03 03:14:26;;;;;;;4.55;4.15;;;9.90;99.90;;;;;;5015439;28;20374;-50
2022/05/03 03:17:07;;;;;;;4.50;4.10;;;9.90;99.90;;;;;;5030953;28;20685;-56
2022/05/03 03:19:59;;;;;;;5.10;4.60;;;9.90;99.90;;;;;;5015305;28;20390;-57
2022/05/03 03:22:30;;;;;;;4.88;4.38;;;9.90;99.90;;;;;;5031809;28;20395;-55
2022/05/03 03:24:58;;;;;;;4.90;4.40;;;9.90;99.90;;;;;;5015982;28;20398;-54
2022/05/03 03:27:26;;;;;;;5.38;4.45;;;9.90;99.90;;;;;;5015391;28;20445;-57
2022/05/03 03:29:56;;;;;;;5.10;4.13;;;9.90;99.90;;;;;;5014737;28;20391;-55
2022/05/03 03:32:25;;;;;;;6.32;4.60;;;9.90;99.90;;;;;;5015162;28;20678;-60
2022/05/03 03:34:53;;;;;;;5.75;4.55;;;9.80;99.90;;;;;;5029902;28;20390;-55
2022/05/03 03:37:22;;;;;;;6.05;4.70;;;9.80;99.90;;;;;;5030255;28;20391;-56
2022/05/03 03:39:47;;;;;;;5.63;4.88;;;9.80;99.90;;;;;;5012426;28;20551;-55
2022/05/03 03:42:13;;;;;;;6.53;5.13;;;9.80;99.90;;;;;;5012986;28;20756;-57
2022/05/03 03:44:39;;;;;;;5.63;4.77;;;9.80;99.90;;;;;;5031379;28;20452;-53
2022/05/03 03:47:05;;;;;;;5.57;4.70;;;9.80;99.90;;;;;;5013910;28;20468;-54
2022/05/03 03:49:33;;;;;;;7.82;5.00;;;9.80;99.90;;;;;;5014268;28;20550;-55
2022/05/03 03:51:59;;;;;;;6.03;5.40;;;9.80;99.90;;;;;;5029090;28;20383;-51
2022/05/03 03:54:47;;;;;;;7.72;5.18;;;9.70;99.90;;;;;;5015388;28;20554;-57
2022/05/03 03:57:14;;;;;;;6.40;4.95;;;9.70;99.90;;;;;;5011191;28;20375;-52
2022/05/03 03:59:40;;;;;;;6.22;5.32;;;9.80;99.90;;;;;;5010907;28;20486;-56
2022/05/03 04:02:06;;;;;;;6.32;5.50;;;9.70;99.90;;;;;;5009202;28;20513;-52
2022/05/03 04:04:36;;;;;;;8.87;5.87;;;9.70;99.90;;;;;;5010772;28;20749;-55
2022/05/03 04:07:02;;;;;;;7.28;5.38;;;9.70;99.90;;;;;;5008665;28;20533;-55
2022/05/03 04:09:28;;;;;;;6.43;5.70;;;9.80;99.90;;;;;;5008428;28;20383;-54
2022/05/03 04:11:54;;;;;;;6.78;5.53;;;9.70;99.90;;;;;;5025910;28;20379;-54
2022/05/03 04:14:20;;;;;;;6.50;5.35;;;9.70;99.90;;;;;;5007522;28;20406;-56
2022/05/03 04:16:46;;;;;;;8.77;5.95;;;9.70;99.90;;;;;;5005832;28;20702;-54
2022/05/03 04:19:12;;;;;;;6.60;5.75;;;9.70;99.90;;;;;;5009284;28;20433;-57
2022/05/03 04:21:39;;;;;;;6.95;6.03;;;9.70;99.90;;;;;;5029104;28;20675;-51
2022/05/03 04:24:05;;;;;;;6.82;5.70;;;9.70;99.90;;;;;;5011477;28;20880;-55
2022/05/03 04:26:31;;;;;;;6.57;5.90;;;9.70;99.90;;;;;;5012641;28;20486;-55
2022/05/03 04:28:57;;;;;;;6.32;5.72;;;9.70;99.90;;;;;;5013465;28;20482;-55
2022/05/03 04:31:27;;;;;;;6.30;5.70;;;9.70;99.90;;;;;;5013522;28;20610;-52
2022/05/03 04:33:57;;;;;;;7.93;5.65;;;9.70;99.90;;;;;;5013997;28;20547;-51
2022/05/03 04:36:25;;;;;;;7.03;5.78;;;9.70;99.90;;;;;;5013656;28;20387;-55
2022/05/03 04:38:52;;;;;;;8.00;5.90;;;9.80;99.90;;;;;;5010835;28;20391;-57
2022/05/03 04:41:20;;;;;;;6.22;5.70;;;9.80;99.90;;;;;;5027525;28;20386;-57
2022/05/03 04:43:46;;;;;;;7.70;6.27;;;9.70;99.90;;;;;;5012620;28;20426;-56
2022/05/03 04:46:12;;;;;;;7.63;6.53;;;9.70;99.90;;;;;;5015474;28;20667;-56
2022/05/03 04:48:40;;;;;;;7.40;6.10;;;9.60;99.90;;;;;;5015424;28;20434;-51
2022/05/03 04:51:26;;;;;;;6.38;5.78;;;9.50;99.90;;;;;;5011737;28;20386;-53
2022/05/03 04:53:52;;;;;;;7.97;6.30;;;9.60;99.90;;;;;;5027758;28;20663;-54
2022/05/03 04:56:25;;;;;;;9.18;6.60;;;9.60;99.90;;;;;;5008995;28;20597;-50
2022/05/03 04:58:51;;;;;;;7.05;5.85;;;9.60;99.90;;;;;;5009094;28;20437;-57
2022/05/03 05:01:19;;;;;;;7.38;5.97;;;9.70;99.90;;;;;;5008443;28;20397;-56
2022/05/03 05:03:44;;;;;;;7.72;6.35;;;9.60;99.90;;;;;;5008030;28;20431;-56
2022/05/03 05:06:11;;;;;;;7.15;5.93;;;9.60;99.90;;;;;;5010242;28;20468;-56
2022/05/03 05:08:37;;;;;;;9.68;6.35;;;9.60;99.90;;;;;;5027815;28;20442;-53
2022/05/03 05:11:04;;;;;;;7.05;6.03;;;9.60;99.90;;;;;;5012513;28;20422;-52
2022/05/03 05:13:30;;;;;;;8.18;6.15;;;9.60;99.90;;;;;;5013628;28;20398;-51
2022/05/03 05:15:56;;;;;;;8.55;6.63;;;9.40;99.90;;;;;;5013807;28;20746;-52
2022/05/03 05:18:23;;;;;;;8.65;7.15;;;9.50;99.90;;;;;;5009291;28;20791;-53
2022/05/03 05:20:49;;;;;;;7.40;6.60;;;9.50;99.90;;;;;;5028965;28;20397;-50
2022/05/03 05:23:15;;;;;;;9.55;7.25;;;9.60;99.90;;;;;;5013019;28;20725;-56
2022/05/03 05:25:41;;;;;;;10.20;7.30;;;9.50;99.90;;;;;;5012378;28;20754;-54
2022/05/03 05:28:06;;;;;;;9.03;7.50;;;9.50;99.90;;;;;;5027755;28;20640;-55
2022/05/03 05:30:32;;;;;;;7.97;7.17;;;9.60;99.90;;;;;;5009671;28;20387;-56
2022/05/03 05:32:58;;;;;;;9.73;7.03;;;9.50;99.90;;;;;;5010272;28;20619;-56
2022/05/03 05:35:23;;;;;;;10.83;7.87;;;9.60;99.90;;;;;;5010030;28;20506;-53
2022/05/03 05:37:49;;;;;;;9.82;7.78;;;9.60;99.90;;;;;;5013150;28;20384;-55
2022/05/03 05:40:14;;;;;;;11.17;8.50;;;9.60;99.90;;;;;;5012649;28;20391;-53
2022/05/03 05:42:42;;;;;;;9.03;8.10;;;9.60;99.90;;;;;;5011354;28;20399;-57
2022/05/03 05:45:07;;;;;;;8.88;7.70;;;9.50;99.90;;;;;;5026583;28;20425;-54
2022/05/03 05:47:33;;;;;;;9.45;7.18;;;9.50;99.90;;;;;;5023548;28;20509;-53
2022/05/03 05:49:59;;;;;;;10.07;7.78;;;9.60;99.90;;;;;;5026301;28;20391;-55
2022/05/03 05:55:09;;;;;;;8.65;7.72;;;9.80;99.90;;;;;;5025991;28;20382;-57
2022/05/03 05:57:34;;;;;;;11.30;8.38;;;9.90;99.90;;;;;;5008447;28;20402;-55
2022/05/03 06:00:00;;;;;;;10.30;8.00;;;9.90;99.90;;;;;;5008120;28;20398;-53
2022/05/03 06:02:27;;;;;;;10.40;9.30;;;10.00;99.90;;;;;;5008545;28;20648;-53
2022/05/03 06:04:52;;;;;;;12.00;8.60;;;10.00;99.90;;;;;;5008238;28;20407;-55
2022/05/03 06:07:19;;;;;;;12.13;9.70;;;10.00;99.90;;;;;;5008690;28;20403;-55
2022/05/03 06:09:44;;;;;;;10.27;9.13;;;10.00;99.90;;;;;;5007790;28;20375;-55
2022/05/03 06:12:10;;;;;;;15.00;9.48;;;10.00;99.90;;;;;;5006270;28;20460;-52
2022/05/03 06:14:36;;;;;;;11.15;9.02;;;10.00;99.90;;;;;;5004237;28;20670;-53
2022/05/03 06:17:02;;;;;;;10.60;8.98;;;10.00;99.90;;;;;;5003030;28;20551;-52
2022/05/03 06:19:28;;;;;;;11.65;9.73;;;10.00;99.90;;;;;;5002909;28;20708;-55
2022/05/03 06:21:54;;;;;;;11.88;9.35;;;10.10;99.90;;;;;;5004022;28;20395;-53
2022/05/03 06:24:20;;;;;;;12.23;9.90;;;10.10;99.90;;;;;;5005497;28;20818;-50
2022/05/03 06:26:45;;;;;;;11.45;9.43;;;10.20;99.90;;;;;;5007215;28;20407;-54
2022/05/03 06:29:11;;;;;;;10.27;9.17;;;10.20;99.90;;;;;;5007972;28;20470;-52
2022/05/03 06:31:44;;;;;;;13.13;10.70;;;10.20;99.90;;;;;;5006634;28;20449;-56
2022/05/03 06:34:10;;;;;;;11.32;9.90;;;10.30;99.90;;;;;;5007619;28;20387;-50
2022/05/03 06:36:36;;;;;;;12.67;10.43;;;10.30;99.90;;;;;;5006298;28;20398;-56
2022/05/03 06:39:04;;;;;;;14.48;10.73;;;10.30;99.90;;;;;;5025797;28;20387;-54
2022/05/03 06:41:30;;;;;;;17.02;11.30;;;10.30;99.90;;;;;;5024868;28;20649;-55
2022/05/03 06:43:58;;;;;;;14.52;11.00;;;10.30;99.90;;;;;;5024325;28;20418;-53
2022/05/03 06:46:24;;;;;;;14.00;12.35;;;10.40;99.90;;;;;;5005475;28;20391;-57
2022/05/03 06:48:50;;;;;;;14.48;11.55;;;10.50;99.90;;;;;;5002473;28;20407;-53
2022/05/03 06:51:15;;;;;;;12.30;10.67;;;10.50;99.90;;;;;;5020168;28;20406;-53
2022/05/03 06:53:41;;;;;;;14.93;11.97;;;10.50;99.90;;;;;;5018966;28;20602;-55
2022/05/03 06:56:07;;;;;;;11.70;10.50;;;10.50;99.90;;;;;;5003184;28;20387;-55
2022/05/03 06:58:32;;;;;;;15.43;11.77;;;10.60;99.90;;;;;;5021081;28;20530;-53
2022/05/03 07:01:05;;;;;;;14.15;11.38;;;10.70;99.90;;;;;;5020197;28;20546;-55
2022/05/03 07:03:31;;;;;;;14.18;11.77;;;10.70;99.90;;;;;;5022316;28;20434;-54
2022/05/03 07:05:56;;;;;;;16.73;12.82;;;10.70;99.90;;;;;;5006955;28;20453;-55
2022/05/03 07:08:22;;;;;;;16.23;12.67;;;10.70;99.90;;;;;;5006476;28;20403;-55
2022/05/03 07:10:47;;;;;;;16.23;12.10;;;10.70;99.90;;;;;;5008566;28;20391;-53
2022/05/03 07:13:13;;;;;;;15.37;11.90;;;10.70;99.90;;;;;;5024100;28;20467;-57
2022/05/03 07:15:39;;;;;;;15.65;11.80;;;10.70;99.90;;;;;;5007741;28;20413;-57
2022/05/03 07:23:32;;;;;;;14.05;10.85;;;10.60;99.90;;;;;;5024838;28;20591;-53
2022/05/03 07:25:59;;;;;;;17.73;12.25;;;10.70;99.90;;;;;;5006905;28;20591;-54
2022/05/03 07:28:25;;;;;;;17.80;13.27;;;10.70;99.90;;;;;;5005334;28;20477;-56
2022/05/03 07:30:50;;;;;;;17.50;11.63;;;10.70;99.90;;;;;;5005641;28;20795;-55
2022/05/03 07:33:17;;;;;;;15.80;11.97;;;10.70;99.90;;;;;;5002823;28;20594;-55
2022/05/03 07:35:42;;;;;;;14.82;12.27;;;10.80;99.90;;;;;;5001689;28;20556;-55
2022/05/03 07:38:08;;;;;;;17.57;12.77;;;10.80;99.90;;;;;;5021538;28;20429;-55
2022/05/03 07:40:33;;;;;;;14.47;11.90;;;10.80;99.90;;;;;;5004601;28;20379;-57
2022/05/03 07:43:00;;;;;;;18.08;13.25;;;10.90;99.90;;;;;;5019836;28;20394;-55
2022/05/03 07:45:25;;;;;;;17.02;12.45;;;10.90;99.90;;;;;;5003415;28;20453;-57
2022/05/03 07:47:51;;;;;;;16.23;12.37;;;10.90;99.90;;;;;;5004400;28;20410;-55
2022/05/03 07:50:17;;;;;;;13.57;10.30;;;10.80;99.90;;;;;;5006227;28;20511;-56
2022/05/03 07:52:42;;;;;;;15.10;11.02;;;10.90;99.90;;;;;;5008225;28;20468;-53
2022/05/03 07:55:09;;;;;;;14.90;10.80;;;10.90;99.90;;;;;;5006578;28;20616;-56
2022/05/03 07:57:35;;;;;;;15.10;11.20;;;10.90;99.90;;;;;;5008496;28;20477;-52
2022/05/03 08:00:00;;;;;;;15.57;11.20;;;10.90;99.90;;;;;;5010290;28;20634;-57
2022/05/03 08:02:27;;;;;;;13.43;10.45;;;10.90;99.90;;;;;;5027704;28;20404;-55
2022/05/03 08:04:56;;;;;;;12.07;10.02;;;10.80;99.90;;;;;;5009351;28;20410;-54
2022/05/03 08:07:22;;;;;;;15.07;10.55;;;10.90;99.90;;;;;;5007308;28;20642;-54
2022/05/03 08:09:51;;;;;;;17.37;11.37;;;10.90;99.90;;;;;;5026554;28;20395;-53
2022/05/03 08:12:17;;;;;;;15.02;11.60;;;10.90;99.90;;;;;;5012691;28;20542;-56
2022/05/03 08:14:43;;;;;;;17.15;11.20;;;10.90;99.90;;;;;;5029913;28;20710;-56
2022/05/03 08:17:08;;;;;;;15.38;11.65;;;10.90;99.90;;;;;;5012029;28;20407;-51
2022/05/03 08:19:35;;;;;;;14.40;11.15;;;10.90;99.90;;;;;;5028422;28;20589;-53
2022/05/03 08:22:01;;;;;;;14.70;10.90;;;10.90;99.90;;;;;;5007935;28;20387;-53
2022/05/03 08:24:27;;;;;;;12.40;10.40;;;10.80;99.90;;;;;;5010071;28;20402;-56
2022/05/03 08:26:54;;;;;;;11.63;10.40;;;10.90;99.90;;;;;;5029081;28;20408;-56
2022/05/03 08:29:20;;;;;;;16.73;11.45;;;11.00;99.90;;;;;;5011820;28;20383;-55
2022/05/03 08:31:46;;;;;;;14.77;11.03;;;11.00;99.90;;;;;;5028176;28;20394;-54
2022/05/03 08:34:13;;;;;;;17.45;12.15;;;10.90;99.90;;;;;;5010721;28;20391;-55
2022/05/03 08:36:39;;;;;;;16.92;10.93;;;10.90;99.90;;;;;;5011851;28;20383;-54
2022/05/03 08:42:02;;;;;;;16.30;10.50;;;10.90;99.90;;;;;;5023146;28;20433;-54
2022/05/03 08:44:31;;;;;;;16.67;12.02;;;11.00;99.90;;;;;;5025503;28;20643;-51
2022/05/03 08:46:59;;;;;;;17.77;11.85;;;10.90;99.90;;;;;;5026352;28;20855;-56
2022/05/03 08:49:32;;;;;;;14.73;11.20;;;10.90;99.90;;;;;;5009584;28;20763;-55
2022/05/03 08:52:02;;;;;;;16.90;11.15;;;10.90;99.90;;;;;;5010483;28;20711;-52
2022/05/03 08:54:28;;;;;;;13.20;10.40;;;10.80;99.90;;;;;;5026242;28;20412;-52
2022/05/03 08:56:55;;;;;;;16.50;10.38;;;11.00;99.90;;;;;;5009463;28;20383;-56
2022/05/03 08:59:22;;;;;;;16.23;9.73;;;11.00;99.90;;;;;;5025307;28;20415;-54
2022/05/03 09:01:48;;;;;;;15.27;9.95;;;11.10;99.90;;;;;;5007140;28;20398;-52
2022/05/03 09:04:14;;;;;;;16.17;9.20;;;11.10;99.90;;;;;;5025221;28;20572;-55
2022/05/03 09:06:48;;;;;;;19.77;10.10;;;11.20;99.90;;;;;;5025735;28;20913;-52
2022/05/03 09:09:15;;;;;;;13.07;9.57;;;11.20;99.90;;;;;;5012242;28;20383;-50
2022/05/03 09:11:49;;;;;;;14.13;9.15;;;11.30;99.90;;;;;;5012006;28;20387;-52
2022/05/03 09:14:36;;;;;;;12.63;8.55;;;11.40;99.90;;;;;;5012025;28;20379;-57
2022/05/03 09:17:05;;;;;;;11.30;6.97;;;11.50;99.90;;;;;;5008758;28;20402;-55
2022/05/03 09:19:31;;;;;;;12.53;6.77;;;11.70;99.90;;;;;;5012185;28;20395;-53
2022/05/03 09:24:58;;;;;;;8.98;5.60;;;11.60;99.90;;;;;;5031871;28;20458;-62
2022/05/03 09:27:25;;;;;;;9.40;5.05;;;11.80;99.90;;;;;;5031513;28;20434;-62
2022/05/03 09:30:11;;;;;;;10.30;5.07;;;11.90;99.90;;;;;;5030118;28;20392;-63
2022/05/03 09:32:43;;;;;;;11.40;5.80;;;12.10;99.90;;;;;;5014359;28;20738;-52
2022/05/03 09:35:32;;;;;;;9.65;5.55;;;12.10;99.90;;;;;;5015315;28;20386;-54
2022/05/03 09:37:58;;;;;;;12.32;6.05;;;12.10;99.90;;;;;;5030992;28;20532;-52
2022/05/03 09:40:25;;;;;;;9.38;5.40;;;12.00;99.90;;;;;;5030304;28;20490;-51
2022/05/03 09:42:53;;;;;;;7.43;5.00;;;12.10;99.90;;;;;;5029825;28;20394;-53
2022/05/03 09:45:28;;;;;;;10.40;5.70;;;12.10;99.90;;;;;;5010499;28;20395;-55
2022/05/03 09:47:56;;;;;;;10.10;4.82;;;12.20;99.90;;;;;;5027850;28;20484;-53
2022/05/03 09:50:37;;;;;;;10.75;4.07;;;12.30;99.90;;;;;;5009672;28;20976;-57
2022/05/03 09:53:10;;;;;;;10.30;4.23;;;12.30;99.90;;;;;;5028055;28;20382;-55
2022/05/03 09:55:37;;;;;;;8.27;3.83;;;12.40;99.90;;;;;;5011254;28;20652;-57
2022/05/03 09:58:05;;;;;;;8.17;3.37;;;12.30;99.90;;;;;;5011787;28;20383;-53
2022/05/03 10:00:33;;;;;;;8.97;3.50;;;12.20;99.90;;;;;;5011614;28;20469;-56
2022/05/03 10:03:00;;;;;;;11.37;3.57;;;12.30;99.90;;;;;;5009817;28;20454;-57
2022/05/03 10:05:25;;;;;;;9.63;3.67;;;12.40;99.90;;;;;;5025332;28;20395;-54
2022/05/03 10:07:52;;;;;;;9.85;3.83;;;12.50;99.90;;;;;;5008919;28;20427;-54
2022/05/03 10:10:19;;;;;;;9.25;3.55;;;12.60;99.90;;;;;;5007447;28;21072;-56
2022/05/03 10:12:47;;;;;;;8.75;3.20;;;12.60;99.90;;;;;;5010099;28;20383;-53
2022/05/03 10:20:35;;;;;;;7.80;3.40;;;12.70;99.90;;;;;;5010237;28;20480;-57
2022/05/03 10:20:54;;;;;;;10.05;3.53;;;12.80;99.90;;;;;;5026194;28;20390;-54
2022/05/03 10:23:20;;;;;;;7.57;3.40;;;12.90;99.90;;;;;;5011270;28;20441;-57
2022/05/03 10:25:46;;;;;;;7.18;3.10;;;12.80;99.90;;;;;;5013069;28;20490;-52
2022/05/03 10:28:12;;;;;;;7.17;2.80;;;12.90;99.90;;;;;;5029323;28;20502;-54
2022/05/03 10:30:40;;;;;;;7.60;2.88;;;13.00;99.90;;;;;;5014841;28;20386;-52
2022/05/03 10:33:21;;;;;;;10.23;3.08;;;13.10;99.90;;;;;;5013704;28;20389;-56
2022/05/03 10:35:47;;;;;;;5.72;2.20;;;13.10;99.90;;;;;;5030980;28;20453;-52
2022/05/03 10:38:13;;;;;;;7.50;2.75;;;13.20;99.90;;;;;;5013678;28;20395;-52
2022/05/03 10:40:44;;;;;;;7.20;2.85;;;13.30;99.90;;;;;;5013282;28;20402;-56
2022/05/03 10:43:11;;;;;;;8.13;2.35;;;13.30;99.90;;;;;;5030049;28;20414;-52
2022/05/03 10:46:13;;;;;;;6.70;2.57;;;13.10;99.90;;;;;;5030461;28;20391;-54
2022/05/03 10:48:41;;;;;;;9.52;2.58;;;13.10;99.90;;;;;;5014635;28;20967;-55
2022/05/03 10:51:11;;;;;;;9.73;2.80;;;13.00;99.90;;;;;;5014479;28;20391;-57
2022/05/03 10:53:41;;;;;;;6.53;2.20;;;13.00;99.90;;;;;;5014183;28;20405;-55
2022/05/03 10:56:07;;;;;;;6.53;2.37;;;13.10;99.90;;;;;;5013162;28;20395;-52
2022/05/03 10:58:35;;;;;;;9.13;2.73;;;13.10;99.90;;;;;;5030673;28;20410;-55
2022/05/03 11:01:20;;;;;;;5.70;2.45;;;13.30;99.90;;;;;;5030649;28;20387;-55
2022/05/03 11:03:48;;;;;;;9.23;2.58;;;13.30;99.90;;;;;;5012754;28;20402;-57
2022/05/03 11:06:22;;;;;;;6.80;2.38;;;13.30;99.90;;;;;;5031121;28;20486;-57
2022/05/03 11:11:42;;;;;;;12.27;2.05;;;13.30;99.90;;;;;;5032035;28;20391;-55
2022/05/03 11:14:21;;;;;;;6.45;2.58;;;13.30;99.90;;;;;;5029628;28;20437;-57
2022/05/03 11:16:50;;;;;;;10.75;2.30;;;13.60;99.90;;;;;;5028705;28;20481;-53
2022/05/03 11:19:19;;;;;;;7.53;2.25;;;13.60;99.90;;;;;;5011662;28;20390;-54
2022/05/03 11:21:46;;;;;;;4.28;2.08;;;13.70;99.90;;;;;;5029591;28;20379;-55
2022/05/03 11:24:24;;;;;;;5.60;1.95;;;13.80;99.90;;;;;;5030431;28;20422;-54
2022/05/03 11:26:52;;;;;;;7.38;2.08;;;14.10;99.90;;;;;;5030692;28;20391;-53
2022/05/03 11:29:29;;;;;;;5.50;2.00;;;14.30;99.90;;;;;;5013090;28;20383;-54
2022/05/03 11:32:06;;;;;;;4.80;1.90;;;14.50;99.90;;;;;;5010614;28;20419;-56
2022/05/03 11:34:32;;;;;;;7.43;2.15;;;14.20;99.90;;;;;;5009189;28;20394;-55
2022/05/03 11:36:58;;;;;;;6.30;2.05;;;14.00;99.90;;;;;;5010357;28;20395;-57
2022/05/03 11:39:24;;;;;;;6.20;2.08;;;13.90;99.90;;;;;;5011134;28;20406;-54
2022/05/03 11:41:50;;;;;;;6.63;2.35;;;13.70;99.90;;;;;;5012498;28;20395;-56
2022/05/03 11:44:16;;;;;;;6.03;2.00;;;13.70;99.90;;;;;;5011052;28;20457;-57
2022/05/03 11:46:44;;;;;;;6.72;2.00;;;13.90;99.90;;;;;;5026732;28;20409;-51
2022/05/03 11:49:12;;;;;;;6.50;2.35;;;14.10;99.90;;;;;;5027427;28;20403;-55
2022/05/03 11:57:22;;;;;;;13.80;3.33;;;14.60;99.90;;;;;;5022535;28;20649;-56
2022/05/03 11:59:49;;;;;;;6.85;2.10;;;14.50;99.90;;;;;;5022539;28;20779;-53
2022/05/03 12:02:17;;;;;;;6.00;2.10;;;14.70;99.90;;;;;;5023865;28;20745;-52
2022/05/03 12:05:06;;;;;;;9.40;2.58;;;14.60;99.90;;;;;;5002001;28;20408;-54
2022/05/03 12:07:40;;;;;;;5.15;1.85;;;14.70;99.90;;;;;;5001783;28;20412;-57
2022/05/03 12:10:37;;;;;;;8.05;2.60;;;14.90;99.90;;;;;;4999767;28;20998;-55
2022/05/03 12:13:13;;;;;;;7.70;2.15;;;15.30;99.90;;;;;;4997482;28;20388;-56
2022/05/03 12:16:03;;;;;;;7.75;2.00;;;15.50;99.90;;;;;;4998381;28;20420;-54
2022/05/03 12:18:30;;;;;;;9.02;2.50;;;15.50;99.90;;;;;;5000316;28;20532;-50
2022/05/03 12:20:58;;;;;;;7.28;2.00;;;15.50;99.90;;;;;;5001094;28;20428;-54
2022/05/03 12:23:41;;;;;;;6.47;2.22;;;15.70;99.90;;;;;;5001398;28;20563;-55
2022/05/03 12:26:14;;;;;;;6.13;2.30;;;15.80;99.90;;;;;;5001726;28;20479;-56
2022/05/03 12:28:42;;;;;;;7.15;2.53;;;15.80;99.90;;;;;;4997549;28;20404;-58
2022/05/03 12:31:09;;;;;;;9.23;2.70;;;16.00;99.90;;;;;;4997520;28;20918;-54
2022/05/03 12:33:41;;;;;;;7.55;2.42;;;15.70;99.90;;;;;;4994776;28;20381;-56
2022/05/03 12:36:08;;;;;;;10.05;2.83;;;15.70;99.90;;;;;;4998393;28;20380;-53
2022/05/03 12:38:45;;;;;;;8.07;2.47;;;15.60;99.90;;;;;;5001529;28;20435;-53
2022/05/03 12:41:25;;;;;;;7.80;2.30;;;15.40;99.90;;;;;;5006609;28;20393;-51
2022/05/03 12:44:21;;;;;;;8.35;2.38;;;15.10;99.90;;;;;;5007033;28;20416;-58
2022/05/03 12:46:49;;;;;;;8.65;2.47;;;15.70;99.90;;;;;;5005027;28;20487;-55
2022/05/03 12:49:15;;;;;;;8.88;2.70;;;15.50;99.90;;;;;;5007905;28;20392;-53
2022/05/03 12:51:43;;;;;;;8.48;2.42;;;15.50;99.90;;;;;;5009420;28;20447;-54
2022/05/03 12:54:10;;;;;;;9.95;2.42;;;15.70;99.90;;;;;;5007026;28;21037;-56
2022/05/03 12:59:21;;;;;;;7.78;2.75;;;16.00;99.90;;;;;;5005999;28;20754;-54
2022/05/03 13:01:54;;;;;;;8.00;2.22;;;16.10;99.90;;;;;;5004364;28;20808;-56
2022/05/03 13:04:20;;;;;;;6.97;2.30;;;16.10;99.90;;;;;;5020773;28;20446;-56
2022/05/03 13:06:47;;;;;;;8.07;2.67;;;16.20;99.90;;;;;;5008481;28;20584;-54
2022/05/03 13:09:12;;;;;;;10.60;2.63;;;16.10;99.90;;;;;;5008197;28;20398;-57
2022/05/03 13:11:38;;;;;;;8.50;2.80;;;16.10;99.90;;;;;;5008593;28;20449;-54
2022/05/03 13:14:06;;;;;;;15.73;2.73;;;16.30;99.90;;;;;;5007348;28;20386;-52
2022/05/03 13:17:05;;;;;;;5.43;1.98;;;16.70;99.90;;;;;;5002979;28;20478;-54
2022/05/03 13:19:32;;;;;;;8.18;2.83;;;16.50;99.90;;;;;;5001094;28;20459;-56
2022/05/03 13:22:01;;;;;;;7.95;2.53;;;16.30;99.90;;;;;;5002072;28;20542;-56
2022/05/03 13:24:26;;;;;;;7.30;2.42;;;16.50;99.90;;;;;;5002899;28;20406;-57
2022/05/03 13:26:52;;;;;;;7.63;2.35;;;17.00;99.90;;;;;;5002701;28;20512;-53
2022/05/03 13:29:19;;;;;;;5.63;2.25;;;17.40;99.90;;;;;;5021987;28;20391;-55
2022/05/03 13:31:45;;;;;;;8.07;2.60;;;17.30;99.90;;;;;;5003170;28;20470;-57
2022/05/03 13:34:12;;;;;;;7.97;2.33;;;17.60;99.90;;;;;;5003894;28;20498;-55
2022/05/03 13:42:09;;;;;;;7.82;2.40;;;17.10;99.90;;;;;;5021722;28;20654;-54